sensor_id;sensor_type;location;lat;lon;timestamp;pressure;altitude;pressure_sealevel;temperature;humidity
5238;BME280;2639;49.700;7.962;2022-10-17T03:17:44;99140.53;;;18.12;95.75
5238;BME280;2639;49.700;7.962;2022-10-17T03:20:58;99155.16;;;18.10;95.46
5238;BME280;2639;49.700;7.962;2022-10-17T03:24:09;99152.09;;;18.01;96.48
5238;BME280;2639;49.700;7.962;2022-10-17T03:27:19;99154.69;;;18.01;96.09
5238;BME280;2639;49.700;7.962;2022-10-17T03:30:30;99158.84;;;17.97;96.04
5238;BME280;2639;49.700;7.962;2022-10-17T03:33:42;99162.44;;;17.99;95.59
5238;BME280;2639;49.700;7.962;2022-10-17T03:36:55;99163.66;;;17.90;96.85
5238;BME280;2639;49.700;7.962;2022-10-17T03:40:09;99162.59;;;17.86;96.20
5238;BME280;2639;49.700;7.962;2022-10-17T03:43:22;99166.91;;;17.85;96.10
5238;BME280;2639;49.700;7.962;2022-10-17T03:46:32;99171.13;;;17.83;96.42
5238;BME280;2639;49.700;7.962;2022-10-17T03:49:43;99168.44;;;17.82;97.67
5238;BME280;2639;49.700;7.962;2022-10-17T03:52:56;99166.81;;;17.84;97.33
5238;BME280;2639;49.700;7.962;2022-10-17T03:56:08;99162.59;;;17.86;97.46
5238;BME280;2639;49.700;7.962;2022-10-17T03:59:19;99174.44;;;17.81;98.44
5238;BME280;2639;49.700;7.962;2022-10-17T04:02:41;99173.72;;;17.83;97.85
5238;BME280;2639;49.700;7.962;2022-10-17T04:06:04;99177.03;;;17.81;98.48
5238;BME280;2639;49.700;7.962;2022-10-17T04:09:16;99188.19;;;17.80;98.87
5238;BME280;2639;49.700;7.962;2022-10-17T04:12:34;99189.44;;;17.86;98.94
5238;BME280;2639;49.700;7.962;2022-10-17T04:16:00;99185.97;;;18.02;97.03
5238;BME280;2639;49.700;7.962;2022-10-17T04:19:11;99195.94;;;18.11;95.87
5238;BME280;2639;49.700;7.962;2022-10-17T04:22:27;99194.56;;;18.18;97.42
5238;BME280;2639;49.700;7.962;2022-10-17T04:25:38;99195.22;;;18.14;97.13
5238;BME280;2639;49.700;7.962;2022-10-17T04:28:51;99191.63;;;18.12;98.56
5238;BME280;2639;49.700;7.962;2022-10-17T04:32:03;99202.88;;;17.94;99.68
5238;BME280;2639;49.700;7.962;2022-10-17T04:35:29;99210.63;;;17.78;100.00
5238;BME280;2639;49.700;7.962;2022-10-17T04:38:45;99220.91;;;17.60;100.00
5238;BME280;2639;49.700;7.962;2022-10-17T04:41:58;99220.78;;;17.42;100.00
5238;BME280;2639;49.700;7.962;2022-10-17T04:45:08;99219.03;;;17.26;100.00
5238;BME280;2639;49.700;7.962;2022-10-17T04:48:38;99221.41;;;17.07;100.00
5238;BME280;2639;49.700;7.962;2022-10-17T04:51:49;99222.13;;;16.89;100.00
5238;BME280;2639;49.700;7.962;2022-10-17T04:55:04;99218.72;;;16.75;100.00
5238;BME280;2639;49.700;7.962;2022-10-17T04:58:15;99216.88;;;16.58;100.00
5238;BME280;2639;49.700;7.962;2022-10-17T06:20:46;99290.09;;;14.39;100.00
5238;BME280;2639;49.700;7.962;2022-10-17T06:23:58;99285.50;;;14.35;100.00
5238;BME280;2639;49.700;7.962;2022-10-17T06:27:12;99283.03;;;14.37;100.00
5238;BME280;2639;49.700;7.962;2022-10-17T06:30:22;99294.03;;;14.34;100.00
5238;BME280;2639;49.700;7.962;2022-10-17T06:33:32;99304.16;;;14.31;100.00
5238;BME280;2639;49.700;7.962;2022-10-17T06:36:48;99300.50;;;14.27;100.00
5238;BME280;2639;49.700;7.962;2022-10-17T06:39:59;99303.72;;;14.25;100.00
5238;BME280;2639;49.700;7.962;2022-10-17T06:43:12;99307.56;;;14.30;100.00
5238;BME280;2639;49.700;7.962;2022-10-17T06:46:39;99311.16;;;14.32;100.00
5238;BME280;2639;49.700;7.962;2022-10-17T06:49:50;99312.03;;;14.32;100.00
5238;BME280;2639;49.700;7.962;2022-10-17T06:53:07;99313.63;;;14.30;100.00
5238;BME280;2639;49.700;7.962;2022-10-17T06:56:31;99319.09;;;14.35;100.00
5238;BME280;2639;49.700;7.962;2022-10-17T06:59:49;99322.56;;;14.36;100.00
5238;BME280;2639;49.700;7.962;2022-10-17T07:03:03;99325.47;;;14.40;100.00
5238;BME280;2639;49.700;7.962;2022-10-17T07:06:13;99326.09;;;14.49;100.00
5238;BME280;2639;49.700;7.962;2022-10-17T07:09:25;99324.75;;;14.55;100.00
5238;BME280;2639;49.700;7.962;2022-10-17T07:12:38;99322.03;;;14.65;100.00
5238;BME280;2639;49.700;7.962;2022-10-17T07:15:48;99323.03;;;14.80;100.00
5238;BME280;2639;49.700;7.962;2022-10-17T07:18:58;99318.81;;;15.07;100.00
5238;BME280;2639;49.700;7.962;2022-10-17T07:22:15;99324.09;;;15.35;100.00
5238;BME280;2639;49.700;7.962;2022-10-17T07:25:29;99341.53;;;15.65;100.00
5238;BME280;2639;49.700;7.962;2022-10-17T07:28:53;99337.44;;;15.95;100.00
5238;BME280;2639;49.700;7.962;2022-10-17T07:32:19;99348.59;;;16.22;100.00
5238;BME280;2639;49.700;7.962;2022-10-17T07:35:29;99347.06;;;16.39;100.00
5238;BME280;2639;49.700;7.962;2022-10-17T07:38:40;99343.56;;;16.67;100.00
5238;BME280;2639;49.700;7.962;2022-10-17T07:41:52;99344.88;;;16.88;100.00
5238;BME280;2639;49.700;7.962;2022-10-17T07:45:04;99352.03;;;17.07;100.00
5238;BME280;2639;49.700;7.962;2022-10-17T07:48:18;99347.19;;;17.28;100.00
5238;BME280;2639;49.700;7.962;2022-10-17T07:51:28;99351.84;;;17.49;100.00
5238;BME280;2639;49.700;7.962;2022-10-17T07:54:38;99350.16;;;17.80;100.00
5238;BME280;2639;49.700;7.962;2022-10-17T07:57:55;99353.94;;;18.33;95.71
5238;BME280;2639;49.700;7.962;2022-10-17T08:01:09;99341.53;;;18.77;94.51
5238;BME280;2639;49.700;7.962;2022-10-17T08:04:26;99340.47;;;19.07;85.04
5238;BME280;2639;49.700;7.962;2022-10-17T08:07:36;99351.31;;;19.51;84.59
5238;BME280;2639;49.700;7.962;2022-10-17T08:10:49;99348.97;;;19.73;81.82
5238;BME280;2639;49.700;7.962;2022-10-17T08:14:00;99345.53;;;19.92;82.50
5238;BME280;2639;49.700;7.962;2022-10-17T08:17:10;99343.66;;;20.27;76.27
5238;BME280;2639;49.700;7.962;2022-10-17T08:20:20;99340.47;;;20.72;76.92
5238;BME280;2639;49.700;7.962;2022-10-17T08:23:30;99332.94;;;20.99;75.34
5238;BME280;2639;49.700;7.962;2022-10-17T08:26:40;99331.69;;;21.10;75.06
5238;BME280;2639;49.700;7.962;2022-10-17T08:29:55;99327.16;;;21.27;72.60
5238;BME280;2639;49.700;7.962;2022-10-17T08:33:10;99324.44;;;21.45;73.97
5238;BME280;2639;49.700;7.962;2022-10-17T08:36:20;99323.97;;;21.55;74.34
5238;BME280;2639;49.700;7.962;2022-10-17T08:39:30;99329.72;;;21.68;74.13
5238;BME280;2639;49.700;7.962;2022-10-17T08:42:53;99333.88;;;21.85;72.78
5238;BME280;2639;49.700;7.962;2022-10-17T08:46:08;99342.53;;;22.06;71.29
5238;BME280;2639;49.700;7.962;2022-10-17T08:49:28;99345.25;;;22.31;72.47
5238;BME280;2639;49.700;7.962;2022-10-17T08:52:44;99335.03;;;22.61;70.45
5238;BME280;2639;49.700;7.962;2022-10-17T08:55:56;99338.19;;;23.00;67.84
5238;BME280;2639;49.700;7.962;2022-10-17T08:59:16;99340.03;;;23.28;66.10
5238;BME280;2639;49.700;7.962;2022-10-17T09:02:41;99338.16;;;23.51;63.19
5238;BME280;2639;49.700;7.962;2022-10-17T09:06:05;99336.94;;;23.67;60.76
5238;BME280;2639;49.700;7.962;2022-10-17T09:09:27;99345.25;;;23.28;60.61
5238;BME280;2639;49.700;7.962;2022-10-17T09:12:47;99346.66;;;23.71;61.86
5238;BME280;2639;49.700;7.962;2022-10-17T09:16:08;99343.25;;;23.47;61.15
5238;BME280;2639;49.700;7.962;2022-10-17T09:19:23;99338.47;;;23.61;61.63
5238;BME280;2639;49.700;7.962;2022-10-17T09:22:39;99342.81;;;23.87;62.19
5238;BME280;2639;49.700;7.962;2022-10-17T09:25:53;99345.25;;;23.54;60.81
5238;BME280;2639;49.700;7.962;2022-10-17T09:29:16;99346.03;;;23.79;61.50
5238;BME280;2639;49.700;7.962;2022-10-17T09:32:31;99352.81;;;23.99;60.02
5238;BME280;2639;49.700;7.962;2022-10-17T09:35:42;99342.50;;;24.05;59.97
5238;BME280;2639;49.700;7.962;2022-10-17T09:38:56;99351.47;;;24.13;60.23
5238;BME280;2639;49.700;7.962;2022-10-17T09:42:11;99342.59;;;24.08;59.35
5238;BME280;2639;49.700;7.962;2022-10-17T09:45:24;99336.72;;;24.17;61.13
5238;BME280;2639;49.700;7.962;2022-10-17T09:48:38;99344.00;;;24.88;59.62
5238;BME280;2639;49.700;7.962;2022-10-17T09:51:50;99352.94;;;25.26;59.54
5238;BME280;2639;49.700;7.962;2022-10-17T09:55:03;99363.69;;;25.35;56.79
5238;BME280;2639;49.700;7.962;2022-10-17T09:58:14;99365.16;;;25.24;58.72
5238;BME280;2639;49.700;7.962;2022-10-17T10:01:26;99369.13;;;25.42;56.91
5238;BME280;2639;49.700;7.962;2022-10-17T10:04:51;99375.25;;;25.09;57.42
5238;BME280;2639;49.700;7.962;2022-10-17T10:08:18;99382.97;;;25.69;57.73
5238;BME280;2639;49.700;7.962;2022-10-17T10:11:44;99385.47;;;26.01;54.31
5238;BME280;2639;49.700;7.962;2022-10-17T10:14:55;99390.53;;;26.30;54.36
5238;BME280;2639;49.700;7.962;2022-10-17T10:18:26;99387.72;;;26.61;53.94
5238;BME280;2639;49.700;7.962;2022-10-17T10:21:53;99392.09;;;26.61;54.00
5238;BME280;2639;49.700;7.962;2022-10-17T10:25:12;99395.56;;;27.02;55.29
5238;BME280;2639;49.700;7.962;2022-10-17T10:28:27;99401.59;;;26.54;55.07
5238;BME280;2639;49.700;7.962;2022-10-17T10:31:40;99406.25;;;26.27;55.22
5238;BME280;2639;49.700;7.962;2022-10-17T10:35:00;99410.59;;;26.62;56.55
5238;BME280;2639;49.700;7.962;2022-10-17T10:38:15;99392.03;;;27.03;54.29
5238;BME280;2639;49.700;7.962;2022-10-17T10:41:44;99388.75;;;27.14;53.05
5238;BME280;2639;49.700;7.962;2022-10-17T10:45:01;99402.97;;;27.22;54.11
5238;BME280;2639;49.700;7.962;2022-10-17T10:48:29;99398.06;;;26.95;53.54
5238;BME280;2639;49.700;7.962;2022-10-17T10:51:43;99396.66;;;27.14;53.66
5238;BME280;2639;49.700;7.962;2022-10-17T10:55:02;99402.69;;;27.06;54.00
5238;BME280;2639;49.700;7.962;2022-10-17T10:58:25;99408.44;;;26.46;54.45
5238;BME280;2639;49.700;7.962;2022-10-17T11:01:40;99415.13;;;26.32;56.30
5238;BME280;2639;49.700;7.962;2022-10-17T11:05:00;99404.88;;;26.05;56.42
5238;BME280;2639;49.700;7.962;2022-10-17T11:08:18;99413.38;;;26.31;58.13
5238;BME280;2639;49.700;7.962;2022-10-17T11:11:33;99413.09;;;26.18;56.12
5238;BME280;2639;49.700;7.962;2022-10-17T11:14:52;99411.44;;;26.23;57.92
5238;BME280;2639;49.700;7.962;2022-10-17T11:18:06;99420.38;;;26.30;57.08
5238;BME280;2639;49.700;7.962;2022-10-17T11:21:27;99422.41;;;26.42;56.42
5238;BME280;2639;49.700;7.962;2022-10-17T11:24:47;99430.88;;;26.29;57.32
5238;BME280;2639;49.700;7.962;2022-10-17T11:28:11;99426.38;;;26.23;57.04
5238;BME280;2639;49.700;7.962;2022-10-17T11:31:30;99422.13;;;26.30;58.30
5238;BME280;2639;49.700;7.962;2022-10-17T11:34:44;99421.91;;;26.20;58.30
5238;BME280;2639;49.700;7.962;2022-10-17T11:38:02;99408.19;;;26.35;57.33
5238;BME280;2639;49.700;7.962;2022-10-17T11:41:18;99411.38;;;26.58;57.67
5238;BME280;2639;49.700;7.962;2022-10-17T11:44:33;99421.22;;;26.69;57.92
5238;BME280;2639;49.700;7.962;2022-10-17T11:47:50;99409.94;;;26.76;58.64
5238;BME280;2639;49.700;7.962;2022-10-17T11:51:07;99416.88;;;26.69;57.01
5238;BME280;2639;49.700;7.962;2022-10-17T11:54:41;99424.69;;;26.64;57.88
5238;BME280;2639;49.700;7.962;2022-10-17T11:58:14;99424.31;;;26.49;58.00
5238;BME280;2639;49.700;7.962;2022-10-17T12:01:36;99430.59;;;26.54;58.35
5238;BME280;2639;49.700;7.962;2022-10-17T12:04:58;99430.72;;;26.60;57.39
5238;BME280;2639;49.700;7.962;2022-10-17T12:08:22;99433.00;;;26.45;58.64
5238;BME280;2639;49.700;7.962;2022-10-17T12:11:46;99440.09;;;26.49;59.39
5238;BME280;2639;49.700;7.962;2022-10-17T12:18:37;99433.84;;;26.06;60.23
5238;BME280;2639;49.700;7.962;2022-10-17T12:21:56;99430.66;;;26.19;59.49
5238;BME280;2639;49.700;7.962;2022-10-17T12:25:17;99424.88;;;26.34;59.48
5238;BME280;2639;49.700;7.962;2022-10-17T12:28:29;99424.59;;;26.61;60.15
5238;BME280;2639;49.700;7.962;2022-10-17T12:31:40;99416.28;;;26.84;59.27
5238;BME280;2639;49.700;7.962;2022-10-17T12:34:51;99418.22;;;26.52;58.87
5238;BME280;2639;49.700;7.962;2022-10-17T12:38:14;99427.31;;;26.27;59.73
5238;BME280;2639;49.700;7.962;2022-10-17T12:45:01;99422.19;;;26.33;60.70
5238;BME280;2639;49.700;7.962;2022-10-17T12:48:11;99421.91;;;26.20;60.18
5238;BME280;2639;49.700;7.962;2022-10-17T12:51:21;99424.28;;;26.10;61.75
5238;BME280;2639;49.700;7.962;2022-10-17T12:54:55;99425.13;;;26.07;61.13
5238;BME280;2639;49.700;7.962;2022-10-17T12:58:19;99425.13;;;26.07;62.44
5238;BME280;2639;49.700;7.962;2022-10-17T13:01:32;99424.75;;;25.92;61.96
5238;BME280;2639;49.700;7.962;2022-10-17T13:04:42;99419.41;;;25.54;62.34
5238;BME280;2639;49.700;7.962;2022-10-17T13:07:56;99418.50;;;25.20;63.45
5238;BME280;2639;49.700;7.962;2022-10-17T13:11:12;99427.38;;;24.93;64.41
5238;BME280;2639;49.700;7.962;2022-10-17T13:14:24;99425.91;;;24.73;64.83
5238;BME280;2639;49.700;7.962;2022-10-17T13:17:34;99431.84;;;24.66;67.17
5238;BME280;2639;49.700;7.962;2022-10-17T13:20:55;99434.28;;;24.60;66.24
5238;BME280;2639;49.700;7.962;2022-10-17T13:24:20;99432.72;;;24.66;68.27
5238;BME280;2639;49.700;7.962;2022-10-17T13:27:35;99426.50;;;24.63;66.94
5238;BME280;2639;49.700;7.962;2022-10-17T13:30:47;99436.06;;;24.61;66.96
5238;BME280;2639;49.700;7.962;2022-10-17T13:33:59;99435.06;;;24.55;67.87
5238;BME280;2639;49.700;7.962;2022-10-17T13:37:12;99435.50;;;24.44;67.42
5238;BME280;2639;49.700;7.962;2022-10-17T13:40:24;99439.50;;;24.31;67.52
5238;BME280;2639;49.700;7.962;2022-10-17T13:43:56;99445.69;;;24.33;68.62
5238;BME280;2639;49.700;7.962;2022-10-17T13:47:20;99458.91;;;24.36;69.46
5238;BME280;2639;49.700;7.962;2022-10-17T13:50:36;99452.69;;;24.32;68.61
5238;BME280;2639;49.700;7.962;2022-10-17T13:53:53;99456.06;;;24.28;69.18
5238;BME280;2639;49.700;7.962;2022-10-17T13:57:04;99458.91;;;24.36;69.16
5238;BME280;2639;49.700;7.962;2022-10-17T14:00:19;99462.09;;;24.26;67.51
5238;BME280;2639;49.700;7.962;2022-10-17T14:03:33;99453.19;;;24.21;67.10
5238;BME280;2639;49.700;7.962;2022-10-17T14:06:56;99468.75;;;24.14;68.45
5238;BME280;2639;49.700;7.962;2022-10-17T14:10:18;99461.41;;;24.04;67.58
5238;BME280;2639;49.700;7.962;2022-10-17T14:13:30;99467.34;;;23.99;68.91
5238;BME280;2639;49.700;7.962;2022-10-17T14:16:47;99472.22;;;23.88;68.46
5238;BME280;2639;49.700;7.962;2022-10-17T14:20:02;99468.97;;;23.69;68.59
5238;BME280;2639;49.700;7.962;2022-10-17T14:23:36;99486.41;;;23.67;69.73
5238;BME280;2639;49.700;7.962;2022-10-17T14:26:47;99476.72;;;23.66;68.71
5238;BME280;2639;49.700;7.962;2022-10-17T14:29:59;99482.03;;;23.68;69.29
5238;BME280;2639;49.700;7.962;2022-10-17T14:33:21;99484.69;;;23.69;68.98
5238;BME280;2639;49.700;7.962;2022-10-17T14:36:35;99490.69;;;23.65;70.46
5238;BME280;2639;49.700;7.962;2022-10-17T14:39:48;99491.75;;;23.70;70.15
5238;BME280;2639;49.700;7.962;2022-10-17T14:43:04;99485.25;;;23.85;70.28
5238;BME280;2639;49.700;7.962;2022-10-17T14:46:16;99487.25;;;23.92;69.32
5238;BME280;2639;49.700;7.962;2022-10-17T14:49:36;99489.63;;;23.84;68.36
5238;BME280;2639;49.700;7.962;2022-10-17T14:52:58;99495.75;;;23.85;69.86
5238;BME280;2639;49.700;7.962;2022-10-17T14:56:21;99495.66;;;23.82;70.78
5238;BME280;2639;49.700;7.962;2022-10-17T14:59:31;99496.91;;;23.69;71.04
5238;BME280;2639;49.700;7.962;2022-10-17T15:03:01;99498.91;;;23.50;70.82
5238;BME280;2639;49.700;7.962;2022-10-17T15:06:17;99504.75;;;23.42;70.07
5238;BME280;2639;49.700;7.962;2022-10-17T15:09:27;99506.41;;;23.40;70.68
5238;BME280;2639;49.700;7.962;2022-10-17T15:12:37;99509.66;;;23.33;71.62
5238;BME280;2639;49.700;7.962;2022-10-17T15:16:12;99519.78;;;23.23;72.89
5238;BME280;2639;49.700;7.962;2022-10-17T15:19:23;99515.88;;;23.12;74.17
5238;BME280;2639;49.700;7.962;2022-10-17T15:22:35;99509.41;;;23.02;75.53
5238;BME280;2639;49.700;7.962;2022-10-17T15:25:52;99509.78;;;22.90;75.85
5238;BME280;2639;49.700;7.962;2022-10-17T15:29:03;99514.72;;;22.81;77.77
5238;BME280;2639;49.700;7.962;2022-10-17T15:32:13;99524.75;;;22.71;79.46
5238;BME280;2639;49.700;7.962;2022-10-17T15:35:24;99535.47;;;22.54;80.72
5238;BME280;2639;49.700;7.962;2022-10-17T15:38:41;99530.25;;;22.33;82.74
5238;BME280;2639;49.700;7.962;2022-10-17T15:41:56;99531.25;;;22.16;83.88
5238;BME280;2639;49.700;7.962;2022-10-17T15:45:08;99527.75;;;21.94;84.79
5238;BME280;2639;49.700;7.962;2022-10-17T15:48:27;99534.03;;;21.78;86.74
5238;BME280;2639;49.700;7.962;2022-10-17T15:51:38;99542.13;;;21.63;87.64
5238;BME280;2639;49.700;7.962;2022-10-17T15:54:51;99545.03;;;21.50;88.96
5238;BME280;2639;49.700;7.962;2022-10-17T15:58:11;99543.63;;;21.39;90.35
5238;BME280;2639;49.700;7.962;2022-10-17T16:01:26;99542.13;;;21.25;90.79
5238;BME280;2639;49.700;7.962;2022-10-17T16:04:44;99552.84;;;21.11;90.97
5238;BME280;2639;49.700;7.962;2022-10-17T16:07:55;99553.13;;;20.98;92.80
5238;BME280;2639;49.700;7.962;2022-10-17T16:11:09;99554.16;;;20.84;93.55
5238;BME280;2639;49.700;7.962;2022-10-17T16:14:21;99556.22;;;20.71;94.34
5238;BME280;2639;49.700;7.962;2022-10-17T16:17:33;99558.88;;;20.55;96.40
5238;BME280;2639;49.700;7.962;2022-10-17T16:20:43;99555.28;;;20.35;98.44
5238;BME280;2639;49.700;7.962;2022-10-17T16:23:53;99567.81;;;20.24;98.09
5238;BME280;2639;49.700;7.962;2022-10-17T16:27:07;99558.56;;;20.13;98.71
5238;BME280;2639;49.700;7.962;2022-10-17T16:30:21;99564.13;;;20.03;99.28
5238;BME280;2639;49.700;7.962;2022-10-17T16:33:31;99580.97;;;19.91;100.00
5238;BME280;2639;49.700;7.962;2022-10-17T16:36:41;99584.72;;;19.80;100.00
5238;BME280;2639;49.700;7.962;2022-10-17T16:39:51;99588.47;;;19.69;100.00
5238;BME280;2639;49.700;7.962;2022-10-17T16:43:02;99586.25;;;19.60;100.00
5238;BME280;2639;49.700;7.962;2022-10-17T16:46:12;99592.78;;;19.52;100.00
5238;BME280;2639;49.700;7.962;2022-10-17T16:49:22;99594.81;;;19.41;100.00
5238;BME280;2639;49.700;7.962;2022-10-17T16:52:32;99594.47;;;19.35;100.00
5238;BME280;2639;49.700;7.962;2022-10-17T16:55:42;99595.69;;;19.25;100.00
5238;BME280;2639;49.700;7.962;2022-10-17T16:58:53;99600.31;;;19.14;100.00
5238;BME280;2639;49.700;7.962;2022-10-17T17:02:04;99611.13;;;19.06;100.00
5238;BME280;2639;49.700;7.962;2022-10-17T17:05:14;99617.06;;;19.03;100.00
5238;BME280;2639;49.700;7.962;2022-10-17T17:08:24;99608.91;;;18.97;100.00
5238;BME280;2639;49.700;7.962;2022-10-17T17:11:37;99602.72;;;18.95;100.00
5238;BME280;2639;49.700;7.962;2022-10-17T17:14:48;99607.59;;;18.89;100.00
5238;BME280;2639;49.700;7.962;2022-10-17T17:18:00;99610.66;;;18.82;100.00
5238;BME280;2639;49.700;7.962;2022-10-17T17:21:13;99614.34;;;18.70;100.00
5238;BME280;2639;49.700;7.962;2022-10-17T17:24:26;99619.81;;;18.60;100.00
5238;BME280;2639;49.700;7.962;2022-10-17T17:27:39;99612.31;;;18.50;100.00
5238;BME280;2639;49.700;7.962;2022-10-17T17:30:50;99619.88;;;18.45;100.00
5238;BME280;2639;49.700;7.962;2022-10-17T17:34:01;99628.28;;;18.41;100.00
5238;BME280;2639;49.700;7.962;2022-10-17T17:37:11;99624.78;;;18.41;100.00
5238;BME280;2639;49.700;7.962;2022-10-17T17:40:21;99627.41;;;18.41;100.00
5238;BME280;2639;49.700;7.962;2022-10-17T17:43:31;99622.91;;;18.38;100.00
5238;BME280;2639;49.700;7.962;2022-10-17T17:46:42;99631.25;;;18.33;100.00
5238;BME280;2639;49.700;7.962;2022-10-17T17:49:55;99643.09;;;18.27;100.00
5238;BME280;2639;49.700;7.962;2022-10-17T17:53:05;99641.94;;;18.22;100.00
5238;BME280;2639;49.700;7.962;2022-10-17T17:56:18;99648.56;;;18.17;100.00
5238;BME280;2639;49.700;7.962;2022-10-17T17:59:31;99644.78;;;18.12;100.00
5238;BME280;2639;49.700;7.962;2022-10-17T18:02:42;99647.19;;;18.09;100.00
5238;BME280;2639;49.700;7.962;2022-10-17T18:05:52;99649.63;;;18.06;100.00
5238;BME280;2639;49.700;7.962;2022-10-17T18:09:05;99652.13;;;18.04;100.00
5238;BME280;2639;49.700;7.962;2022-10-17T18:12:15;99653.91;;;18.05;100.00
5238;BME280;2639;49.700;7.962;2022-10-17T18:15:25;99650.13;;;18.00;100.00
5238;BME280;2639;49.700;7.962;2022-10-17T18:18:40;99655.25;;;17.99;100.00
5238;BME280;2639;49.700;7.962;2022-10-17T18:21:51;99654.28;;;17.97;100.00
5238;BME280;2639;49.700;7.962;2022-10-17T18:25:03;99657.88;;;17.99;100.00
5238;BME280;2639;49.700;7.962;2022-10-17T18:28:14;99657.75;;;17.97;100.00
5238;BME280;2639;49.700;7.962;2022-10-17T18:31:24;99651.41;;;17.92;100.00
5238;BME280;2639;49.700;7.962;2022-10-17T18:34:37;99651.91;;;17.86;100.00
5238;BME280;2639;49.700;7.962;2022-10-17T18:37:47;99649.97;;;17.82;100.00
5238;BME280;2639;49.700;7.962;2022-10-17T18:41:02;99657.66;;;17.81;100.00
5238;BME280;2639;49.700;7.962;2022-10-17T18:44:15;99653.84;;;17.76;100.00
5238;BME280;2639;49.700;7.962;2022-10-17T18:47:25;99650.31;;;17.75;100.00
5238;BME280;2639;49.700;7.962;2022-10-17T18:50:38;99651.13;;;17.74;100.00
5238;BME280;2639;49.700;7.962;2022-10-17T18:53:50;99662.41;;;17.60;100.00
5238;BME280;2639;49.700;7.962;2022-10-17T18:57:00;99659.34;;;17.52;100.00
5238;BME280;2639;49.700;7.962;2022-10-17T19:00:13;99663.31;;;17.47;100.00
5238;BME280;2639;49.700;7.962;2022-10-17T19:03:23;99669.16;;;17.43;100.00
5238;BME280;2639;49.700;7.962;2022-10-17T19:06:38;99665.44;;;17.39;100.00
5238;BME280;2639;49.700;7.962;2022-10-17T19:09:48;99661.97;;;17.39;100.00
5238;BME280;2639;49.700;7.962;2022-10-17T19:13:01;99658.94;;;17.46;100.00
5238;BME280;2639;49.700;7.962;2022-10-17T19:16:19;99650.63;;;17.52;100.00
5238;BME280;2639;49.700;7.962;2022-10-17T19:19:30;99650.72;;;17.53;100.00
5238;BME280;2639;49.700;7.962;2022-10-17T19:22:50;99657.63;;;17.53;100.00
5238;BME280;2639;49.700;7.962;2022-10-17T19:26:01;99653.22;;;17.52;100.00
5238;BME280;2639;49.700;7.962;2022-10-17T19:29:15;99656.44;;;17.48;100.00
5238;BME280;2639;49.700;7.962;2022-10-17T19:32:28;99649.25;;;17.43;100.00
5238;BME280;2639;49.700;7.962;2022-10-17T19:35:39;99654.97;;;17.38;100.00
5238;BME280;2639;49.700;7.962;2022-10-17T19:38:54;99648.47;;;17.31;100.00
5238;BME280;2639;49.700;7.962;2022-10-17T19:42:07;99647.09;;;17.36;100.00
5238;BME280;2639;49.700;7.962;2022-10-17T19:45:17;99648.38;;;17.43;100.00
5238;BME280;2639;49.700;7.962;2022-10-17T19:48:30;99648.56;;;17.46;100.00
5238;BME280;2639;49.700;7.962;2022-10-17T19:51:46;99646.25;;;17.51;100.00
5238;BME280;2639;49.700;7.962;2022-10-17T19:54:58;99649.84;;;17.53;100.00
5238;BME280;2639;49.700;7.962;2022-10-17T19:58:10;99644.63;;;17.53;100.00
5238;BME280;2639;49.700;7.962;2022-10-17T20:01:24;99637.75;;;17.53;100.00
5238;BME280;2639;49.700;7.962;2022-10-17T20:04:35;99643.03;;;17.55;100.00
5238;BME280;2639;49.700;7.962;2022-10-17T20:08:05;99640.44;;;17.55;100.00
5238;BME280;2639;49.700;7.962;2022-10-17T20:11:19;99639.25;;;17.50;100.00
5238;BME280;2639;49.700;7.962;2022-10-17T20:14:30;99632.09;;;17.45;100.00
5238;BME280;2639;49.700;7.962;2022-10-17T20:17:43;99638.88;;;17.43;100.00
5238;BME280;2639;49.700;7.962;2022-10-17T20:20:54;99640.47;;;17.41;100.00
5238;BME280;2639;49.700;7.962;2022-10-17T20:24:06;99641.25;;;17.40;100.00
5238;BME280;2639;49.700;7.962;2022-10-17T20:27:18;99636.19;;;17.42;100.00
5238;BME280;2639;49.700;7.962;2022-10-17T20:30:35;99643.97;;;17.42;100.00
5238;BME280;2639;49.700;7.962;2022-10-17T20:33:45;99641.38;;;17.42;100.00
5238;BME280;2639;49.700;7.962;2022-10-17T20:36:55;99633.47;;;17.40;100.00
5238;BME280;2639;49.700;7.962;2022-10-17T20:40:06;99635.00;;;17.37;100.00
5238;BME280;2639;49.700;7.962;2022-10-17T20:43:37;99634.00;;;17.35;100.00
5238;BME280;2639;49.700;7.962;2022-10-17T20:46:48;99639.09;;;17.33;100.00
5238;BME280;2639;49.700;7.962;2022-10-17T20:50:09;99645.09;;;17.32;100.00
5238;BME280;2639;49.700;7.962;2022-10-17T20:53:20;99643.09;;;17.28;100.00
5238;BME280;2639;49.700;7.962;2022-10-17T20:56:45;99642.03;;;17.24;100.00
5238;BME280;2639;49.700;7.962;2022-10-17T20:59:56;99648.63;;;17.19;100.00
5238;BME280;2639;49.700;7.962;2022-10-17T21:03:06;99650.25;;;17.17;100.00
5238;BME280;2639;49.700;7.962;2022-10-17T21:06:18;99643.25;;;17.16;100.00
5238;BME280;2639;49.700;7.962;2022-10-17T21:09:28;99661.50;;;17.18;100.00
5238;BME280;2639;49.700;7.962;2022-10-17T21:12:38;99659.00;;;17.19;100.00
5238;BME280;2639;49.700;7.962;2022-10-17T21:16:06;99657.41;;;17.21;100.00
5238;BME280;2639;49.700;7.962;2022-10-17T21:19:16;99654.03;;;17.22;100.00
5238;BME280;2639;49.700;7.962;2022-10-17T21:22:26;99660.09;;;17.23;100.00
5238;BME280;2639;49.700;7.962;2022-10-17T21:25:37;99658.31;;;17.22;100.00
5238;BME280;2639;49.700;7.962;2022-10-17T21:28:48;99656.50;;;17.21;100.00
5238;BME280;2639;49.700;7.962;2022-10-17T21:32:00;99661.88;;;17.24;100.00
5238;BME280;2639;49.700;7.962;2022-10-17T21:35:15;99659.38;;;17.25;100.00
5238;BME280;2639;49.700;7.962;2022-10-17T21:38:25;99663.88;;;17.28;100.00
5238;BME280;2639;49.700;7.962;2022-10-17T21:41:35;99665.69;;;17.29;100.00
5238;BME280;2639;49.700;7.962;2022-10-17T21:44:45;99665.69;;;17.29;100.00
5238;BME280;2639;49.700;7.962;2022-10-17T21:47:56;99671.56;;;17.27;100.00
5238;BME280;2639;49.700;7.962;2022-10-17T21:51:22;99668.06;;;17.26;100.00
5238;BME280;2639;49.700;7.962;2022-10-17T21:54:32;99663.69;;;17.25;100.00
5238;BME280;2639;49.700;7.962;2022-10-17T21:57:42;99662.81;;;17.24;100.00
5238;BME280;2639;49.700;7.962;2022-10-17T22:00:52;99661.16;;;17.27;100.00
5238;BME280;2639;49.700;7.962;2022-10-17T22:04:05;99661.28;;;17.28;100.00
5238;BME280;2639;49.700;7.962;2022-10-17T22:07:15;99657.69;;;17.26;100.00
